createdAt,value
2018-05-10T00:00:17.320Z,42.8
2018-05-10T00:01:07.968Z,42.8
2018-05-10T00:01:58.283Z,42.8
2018-05-10T00:02:47.797Z,42.8
2018-05-10T00:03:38.389Z,42.8
2018-05-10T00:04:28.295Z,42.8
2018-05-10T00:05:17.962Z,42.8
2018-05-10T00:06:08.316Z,42.8
2018-05-10T00:06:58.692Z,42.8
2018-05-10T00:07:49.175Z,42.8
2018-05-10T00:08:38.030Z,42.8
2018-05-10T00:09:43.500Z,42.8
2018-05-10T00:10:19.052Z,42.8
2018-05-10T00:11:08.448Z,42.8
2018-05-10T00:11:58.785Z,42.8
2018-05-10T00:12:48.289Z,42.8
2018-05-10T00:13:38.364Z,42.8
2018-05-10T00:14:28.432Z,42.8
2018-05-10T00:15:19.324Z,42.8
2018-05-10T00:16:08.565Z,42.8
2018-05-10T00:16:59.452Z,42.8
2018-05-10T00:17:49.247Z,42.7
2018-05-10T00:18:39.297Z,42.7
2018-05-10T00:19:29.109Z,42.7
2018-05-10T00:20:19.319Z,42.7
2018-05-10T00:21:09.478Z,42.7
2018-05-10T00:21:59.547Z,42.7
2018-05-10T00:22:49.325Z,42.7
2018-05-10T00:23:39.380Z,42.7
2018-05-10T00:24:30.223Z,42.7
2018-05-10T00:25:19.799Z,42.6
2018-05-10T00:26:09.899Z,42.7
2018-05-10T00:26:59.940Z,42.7
2018-05-10T00:27:49.990Z,42.6
2018-05-10T00:28:40.050Z,42.6
2018-05-10T00:29:30.152Z,42.6
2018-05-10T00:30:20.090Z,42.6
2018-05-10T00:31:10.449Z,42.6
2018-05-10T00:32:00.305Z,42.6
2018-05-10T00:32:50.363Z,42.6
2018-05-10T00:33:40.037Z,42.6
2018-05-10T00:34:30.499Z,42.6
2018-05-10T00:35:20.014Z,42.6
2018-05-10T00:36:11.307Z,42.6
2018-05-10T00:37:00.138Z,42.6
2018-05-10T00:37:50.468Z,42.6
2018-05-10T00:38:40.848Z,42.6
2018-05-10T00:39:31.006Z,42.6
2018-05-10T00:40:20.630Z,42.6
2018-05-10T00:41:10.485Z,42.5
2018-05-10T00:42:00.830Z,42.5
2018-05-10T00:43:54.887Z,42.5
2018-05-10T00:44:04.619Z,42.5
2018-05-10T00:44:56.191Z,42.5
2018-05-10T00:45:45.332Z,42.5
2018-05-10T00:46:35.797Z,42.5
2018-05-10T00:47:25.195Z,42.5
2018-05-10T00:48:16.099Z,42.5
2018-05-10T00:49:05.866Z,42.5
2018-05-10T00:49:55.069Z,42.5
2018-05-10T00:50:45.700Z,42.4
2018-05-10T00:51:35.778Z,42.4
2018-05-10T00:52:41.449Z,42.4
2018-05-10T00:53:16.115Z,42.4
2018-05-10T00:54:05.994Z,42.4
2018-05-10T00:54:56.302Z,42.4
2018-05-10T00:55:46.402Z,42.4
2018-05-10T00:56:36.720Z,42.4
2018-05-10T00:57:25.977Z,42.4
2018-05-10T00:58:16.573Z,42.4
2018-05-10T00:59:06.987Z,42.4
2018-05-10T00:59:56.438Z,42.4
2018-05-10T01:00:45.946Z,42.4
2018-05-10T01:01:37.077Z,42.4
2018-05-10T01:02:26.039Z,42.4
2018-05-10T01:03:16.506Z,42.4
2018-05-10T01:04:06.387Z,42.4
2018-05-10T01:04:57.024Z,42.4
2018-05-10T01:05:45.947Z,42.4
2018-05-10T01:06:36.396Z,42.4
2018-05-10T01:07:26.486Z,42.4
2018-05-10T01:08:16.799Z,42.4
2018-05-10T01:09:06.631Z,42.3
2018-05-10T01:09:57.584Z,42.3
2018-05-10T01:10:46.520Z,42.3
2018-05-10T01:11:36.061Z,42.3
2018-05-10T01:12:26.386Z,42.3
2018-05-10T01:13:17.359Z,42.3
2018-05-10T01:14:07.241Z,42.3
2018-05-10T01:14:57.653Z,42.3
2018-05-10T01:15:46.781Z,42.3
2018-05-10T01:16:37.576Z,42.3
2018-05-10T01:17:27.223Z,42.3
2018-05-10T01:18:16.973Z,42.3
2018-05-10T01:19:07.325Z,42.3
2018-05-10T01:20:12.005Z,42.3
2018-05-10T01:20:48.273Z,42.3
2018-05-10T01:21:37.673Z,42.2
2018-05-10T01:22:28.147Z,42.3
2018-05-10T01:23:17.671Z,42.2
2018-05-10T01:24:07.684Z,42.3
2018-05-10T01:24:58.383Z,42.2
2018-05-10T01:25:48.899Z,42.2
2018-05-10T01:26:38.213Z,42.2
2018-05-10T01:27:28.074Z,42.2
2018-05-10T01:28:18.323Z,42.2
2018-05-10T01:29:09.211Z,42.2
2018-05-10T01:29:58.428Z,42.2
2018-05-10T01:30:48.896Z,42.2
2018-05-10T01:31:38.920Z,42.2
2018-05-10T01:32:42.902Z,42.2
2018-05-10T20:10:32.457Z,31.9
2018-05-10T20:11:23.928Z,31.9
2018-05-10T20:12:13.992Z,31.9
2018-05-10T20:13:03.782Z,31.9
2018-05-10T20:13:54.667Z,31.9
2018-05-10T20:14:43.373Z,31.9
2018-05-10T20:15:34.266Z,31.9
2018-05-10T20:16:24.299Z,31.9
2018-05-10T20:17:13.824Z,31.9
2018-05-10T20:18:04.485Z,31.9
2018-05-10T20:18:53.414Z,31.9
2018-05-10T20:19:42.959Z,31.9
2018-05-10T20:20:33.308Z,31.9
2018-05-10T20:21:23.969Z,31.9
2018-05-10T20:22:14.185Z,31.9
2018-05-10T20:23:03.759Z,31.9
2018-05-10T20:23:55.149Z,31.9
2018-05-10T20:24:43.701Z,31.9
2018-05-10T20:25:33.902Z,31.9
2018-05-10T20:26:23.946Z,31.9
2018-05-10T20:27:13.621Z,31.9
2018-05-10T20:28:03.980Z,31.9
2018-05-10T20:28:53.898Z,31.9
2018-05-10T20:29:44.061Z,31.9
2018-05-10T20:30:34.099Z,31.8
2018-05-10T20:31:24.075Z,31.8
2018-05-10T20:32:15.580Z,31.8
2018-05-10T20:33:04.753Z,31.8
2018-05-10T20:33:54.670Z,31.8
2018-05-10T20:34:44.684Z,31.8
2018-05-10T20:35:35.190Z,31.8
2018-05-10T20:36:25.343Z,31.8
2018-05-10T20:37:15.433Z,31.8
2018-05-10T20:38:04.272Z,31.8
2018-05-10T20:38:55.265Z,31.8
2018-05-10T20:39:44.997Z,31.8
2018-05-10T20:40:34.781Z,31.8
2018-05-10T20:41:25.220Z,31.8
2018-05-10T20:42:15.345Z,31.8
2018-05-10T20:43:05.660Z,31.8
2018-05-10T20:43:55.882Z,31.8
2018-05-10T20:44:45.625Z,31.8
2018-05-10T20:45:36.004Z,31.8
2018-05-10T20:46:25.752Z,31.8
2018-05-10T20:47:16.118Z,31.8
2018-05-10T20:48:05.678Z,31.8
2018-05-10T20:48:56.827Z,31.8
2018-05-10T20:49:45.812Z,31.8
2018-05-10T20:50:36.725Z,31.7
2018-05-10T20:51:25.350Z,31.7
2018-05-10T20:52:16.273Z,31.7
2018-05-10T20:53:06.334Z,31.7
2018-05-10T20:53:56.165Z,31.6
2018-05-10T20:54:46.683Z,31.6
2018-05-10T20:55:36.573Z,31.6
2018-05-10T20:56:26.500Z,31.6
2018-05-10T20:57:16.583Z,31.6
2018-05-10T20:58:06.347Z,31.6
2018-05-10T20:58:56.665Z,31.6
2018-05-10T20:59:46.819Z,31.6
2018-05-10T21:00:36.882Z,31.6
2018-05-10T21:01:27.224Z,31.6
2018-05-10T21:02:16.745Z,31.6
2018-05-10T21:03:07.289Z,31.6
2018-05-10T21:03:56.185Z,31.6
2018-05-10T21:04:47.252Z,31.6
2018-05-10T21:05:37.574Z,31.6
2018-05-10T21:06:26.977Z,31.6
2018-05-10T21:07:16.751Z,31.6
2018-05-10T21:08:07.390Z,31.6
2018-05-10T21:08:57.160Z,31.6
2018-05-10T21:09:48.058Z,31.6
2018-05-10T21:10:37.896Z,31.5
2018-05-10T21:11:27.094Z,31.6
2018-05-10T21:12:17.709Z,31.6
2018-05-10T21:13:07.594Z,31.5
2018-05-10T21:13:57.546Z,31.6
2018-05-10T21:14:47.423Z,31.5
2018-05-10T21:15:38.261Z,31.5
2018-05-10T21:16:29.379Z,31.6
2018-05-10T21:17:18.367Z,31.5
2018-05-10T21:18:08.707Z,31.5
2018-05-10T21:18:59.071Z,31.5
2018-05-10T21:19:48.246Z,31.5
2018-05-10T21:20:38.629Z,31.5
2018-05-10T21:21:29.077Z,31.5
2018-05-10T21:22:19.019Z,31.5
2018-05-10T21:23:10.115Z,31.5
2018-05-10T21:23:58.598Z,31.4
2018-05-10T21:24:49.489Z,31.4
2018-05-10T21:25:38.711Z,31.5
2018-05-10T21:26:29.344Z,31.4
2018-05-10T21:27:19.414Z,31.4
2018-05-10T21:28:09.154Z,31.5
2018-05-10T21:28:58.934Z,31.4
2018-05-10T21:29:49.907Z,31.4
2018-05-10T21:30:39.368Z,31.4
2018-05-10T21:31:29.466Z,31.4
2018-05-10T21:32:20.048Z,31.4
2018-05-10T21:33:10.139Z,31.4
2018-05-10T21:34:01.005Z,31.4
2018-05-10T21:34:50.244Z,31.4
2018-05-10T21:35:39.726Z,31.4
2018-05-10T21:36:30.186Z,31.4
2018-05-10T21:37:20.437Z,31.4
2018-05-10T21:38:10.213Z,31.4
2018-05-10T21:39:00.579Z,31.4
2018-05-10T21:39:50.341Z,31.4
2018-05-10T21:40:40.198Z,31.4
2018-05-10T21:41:30.246Z,31.4
2018-05-10T21:42:20.568Z,31.4
2018-05-10T21:43:10.631Z,31.4
2018-05-10T21:44:00.664Z,31.4
2018-05-10T21:44:52.533Z,31.4
2018-05-10T21:45:40.785Z,31.4
2018-05-10T21:46:30.848Z,31.4
2018-05-10T21:47:21.219Z,31.4
2018-05-10T21:48:10.971Z,31.4
2018-05-10T21:49:00.735Z,31.4
2018-05-10T21:49:51.151Z,31.4
2018-05-10T21:50:40.590Z,31.4
2018-05-10T21:51:30.962Z,31.4
2018-05-10T21:52:21.037Z,31.4
2018-05-10T21:53:11.911Z,31.4
2018-05-10T21:54:00.321Z,31.4
2018-05-10T21:54:51.996Z,31.4
2018-05-10T21:55:41.528Z,31.4
2018-05-10T21:56:31.610Z,31.3
2018-05-10T21:57:21.430Z,31.3
2018-05-10T21:58:11.761Z,31.3
2018-05-10T21:59:01.820Z,31.3
2018-05-10T21:59:51.880Z,31.3
2018-05-10T22:00:42.208Z,31.3
2018-05-10T22:01:32.083Z,31.3
2018-05-10T22:02:22.309Z,31.3
2018-05-10T22:03:12.359Z,31.3
2018-05-10T22:04:02.203Z,31.3
2018-05-10T22:04:52.041Z,31.3
2018-05-10T22:05:42.316Z,31.3
2018-05-10T22:06:31.764Z,31.3
2018-05-10T22:07:21.911Z,31.3
2018-05-10T22:08:11.888Z,31.3
2018-05-10T22:09:02.871Z,31.3
2018-05-10T22:09:52.957Z,31.3
2018-05-10T22:10:42.680Z,31.3
2018-05-10T22:11:32.446Z,31.3
2018-05-10T22:12:22.610Z,31.3
2018-05-10T22:13:13.190Z,31.3
2018-05-10T22:14:02.659Z,31.3
2018-05-10T22:14:53.104Z,31.3
2018-05-10T22:15:43.123Z,31.3
2018-05-10T22:16:33.181Z,31.3
2018-05-10T22:17:23.533Z,31.3
2018-05-10T22:18:13.281Z,31.3
2018-05-10T22:19:03.703Z,31.3
2018-05-10T22:19:52.842Z,31.3
2018-05-10T22:20:43.274Z,31.3
2018-05-10T22:21:33.505Z,31.3
2018-05-10T22:22:23.843Z,31.3
2018-05-10T22:23:13.651Z,31.3
2018-05-10T22:24:03.691Z,31.3
2018-05-10T22:24:54.017Z,31.3
2018-05-10T22:25:43.818Z,31.2
2018-05-10T22:26:33.903Z,31.3
2018-05-10T22:27:23.077Z,31.2
2018-05-10T22:28:13.981Z,31.2
2018-05-10T22:29:03.543Z,31.2
2018-05-10T22:29:54.434Z,31.2
2018-05-10T22:30:44.489Z,31.2
2018-05-10T22:31:34.561Z,31.2
2018-05-10T22:32:24.616Z,31.2
2018-05-10T22:33:14.412Z,31.2
2018-05-10T22:34:04.186Z,31.2
2018-05-10T22:34:54.537Z,31.2
2018-05-10T22:35:44.580Z,31.2
2018-05-10T22:36:34.342Z,31.2
2018-05-10T22:37:24.705Z,31.2
2018-05-10T22:38:15.057Z,31.2
2018-05-10T22:39:04.581Z,31.2
2018-05-10T22:39:55.219Z,31.1
2018-05-10T22:40:44.690Z,31.1
2018-05-10T22:41:35.032Z,31.1
2018-05-10T22:42:25.101Z,31.1
2018-05-10T22:43:14.899Z,31.1
2018-05-10T22:44:04.647Z,31.1
2018-05-10T22:44:55.568Z,31.1
2018-05-10T22:45:45.050Z,31.1
2018-05-10T22:46:35.679Z,31.1
2018-05-10T22:47:24.642Z,31.1
2018-05-10T22:48:15.529Z,31.1
2018-05-10T22:49:05.923Z,31.1
2018-05-10T22:49:55.669Z,31.1
2018-05-10T22:50:45.764Z,31.1
2018-05-10T22:51:36.064Z,31.1
2018-05-10T22:52:25.876Z,31.1
2018-05-10T22:53:16.204Z,31.1
2018-05-10T22:54:06.071Z,31.1
2018-05-10T22:54:56.414Z,31.1
2018-05-10T22:55:46.431Z,31.1
2018-05-10T22:56:36.184Z,31.1
2018-05-10T22:57:26.260Z,31.1
2018-05-10T22:58:16.598Z,31.1
2018-05-10T22:59:06.362Z,31.1
2018-05-10T22:59:57.288Z,31.1
2018-05-10T23:00:46.308Z,31.1
2018-05-10T23:01:36.136Z,31.1
2018-05-10T23:02:26.911Z,31.1
2018-05-10T23:03:16.422Z,31.1
2018-05-10T23:04:07.041Z,31.1
2018-05-10T23:04:57.105Z,31.1
2018-05-10T23:05:47.151Z,31.1
2018-05-10T23:06:36.677Z,31.1
2018-05-10T23:07:26.987Z,31.1
2018-05-10T23:08:17.074Z,31.1
2018-05-10T23:09:06.551Z,31.1
2018-05-10T23:09:57.188Z,31.1
2018-05-10T23:10:46.988Z,31.1
2018-05-10T23:11:36.756Z,31.1
2018-05-10T23:12:27.372Z,31
2018-05-10T23:13:17.191Z,31.1
2018-05-10T23:14:07.775Z,31.1
2018-05-10T23:14:57.289Z,31
2018-05-10T23:15:47.618Z,31
2018-05-10T23:16:37.949Z,31
2018-05-10T23:17:27.476Z,31
2018-05-10T23:18:18.061Z,31
2018-05-10T23:19:07.924Z,31
2018-05-10T23:19:57.640Z,31
2018-05-10T23:20:47.727Z,31
2018-05-10T23:21:38.072Z,31
2018-05-10T23:22:27.843Z,31
2018-05-10T23:23:18.182Z,31
2018-05-10T23:24:08.287Z,31
2018-05-10T23:24:57.771Z,30.9
2018-05-10T23:25:48.760Z,30.9
2018-05-10T23:26:38.452Z,30.9
2018-05-10T23:27:28.791Z,30.9
2018-05-10T23:28:18.868Z,30.9
2018-05-10T23:29:08.089Z,30.9
2018-05-10T23:29:58.417Z,30.9
2018-05-10T23:30:48.758Z,30.9
2018-05-10T23:31:38.868Z,30.9
2018-05-10T23:32:28.878Z,30.9
2018-05-10T23:33:19.248Z,30.9
2018-05-10T23:34:09.294Z,30.9
2018-05-10T23:34:58.780Z,30.9
2018-05-10T23:35:48.582Z,30.9
2018-05-10T23:36:39.180Z,30.9
2018-05-10T23:37:29.081Z,30.9
2018-05-10T23:38:18.775Z,30.9
2018-05-10T23:39:09.404Z,30.9
2018-05-10T23:39:59.716Z,30.9
2018-05-10T23:40:49.785Z,30.9
2018-05-10T23:41:39.338Z,30.9
2018-05-10T23:42:29.946Z,30.9
2018-05-10T23:43:19.471Z,30.9
2018-05-10T23:44:10.087Z,30.9
2018-05-10T23:44:59.852Z,30.9
2018-05-10T23:45:49.608Z,30.9
2018-05-10T23:46:39.953Z,30.9
2018-05-10T23:47:29.815Z,30.9
2018-05-10T23:48:20.110Z,30.9
2018-05-10T23:49:10.180Z,30.9
2018-05-10T23:50:00.494Z,30.9
2018-05-10T23:50:50.282Z,30.9
2018-05-10T23:51:40.337Z,30.9
2018-05-10T23:52:29.866Z,30.9
2018-05-10T23:53:20.733Z,30.9
2018-05-10T23:54:10.273Z,30.9
2018-05-10T23:55:00.697Z,30.9
2018-05-10T23:55:50.934Z,30.8
2018-05-10T23:56:40.977Z,30.9
2018-05-10T23:57:31.058Z,30.9
2018-05-10T23:58:20.306Z,30.9
2018-05-10T23:59:10.623Z,30.8
